Skip Navigation Links Skip Navigation Links

Current Weather

Lanseria Civ / Mil, South Africa

For information only: do not use for flight planning or navigation.
Latest weather
Observation time Sunday, August 1, 2021 11:00 AM SAST
Local time Sunday, August 1, 2021 11:33 AM SAST
Flight conditions Visual Meteorological Conditions
Winds
Wind direction North-Northwest (340°)
Winds variable from 290° to 20°
Wind speed 7 mph
Visibility 6.2 mi.
Sky condition
Ceiling unlimited
Sky clear
Temperature 63°F
Dewpoint 28°F
Altimeter 30.53 in.Hg
Derived measurements
Relative humidity 27%
Density altitude 1004 ft.
Remarks
Ceiling and visibility OK.
No significant changes expected in the next two hours.
METAR FALA 010900Z 34006KT 290V020 CAVOK 17/M02 Q1034 NOSIG

Settings

Location code

InnerDrive.Weather 4.0.6770.0 Release CLR 4.0.30319.42000
Copyright ©2018 Inner Drive Technology. All rights reserved. Portions Copyright ©1986-2018 David Braverman.

Find weather

Site navigation


Skip Navigation Links

Place info

Page info

PayPal - The safer, easier way to pay online!

Return home.

Copyright ©2021 Inner Drive Technology. Purveyors of fine, hand-crafted computer software. Page printed 2021-08-01T09:33:24 UTC.